sensor_id;sensor_type;location;lat;lon;timestamp;P1;durP1;ratioP1;P2;durP2;ratioP2
12908;SDS011;6522;49.622;6.126;2023-03-01T00:02:18;25.52;;;23.92;;
12908;SDS011;6522;49.622;6.126;2023-03-01T00:05:05;27.10;;;24.87;;
12908;SDS011;6522;49.622;6.126;2023-03-01T00:07:52;27.45;;;25.95;;
12908;SDS011;6522;49.622;6.126;2023-03-01T00:10:38;26.95;;;25.25;;
12908;SDS011;6522;49.622;6.126;2023-03-01T00:13:25;23.45;;;22.15;;
12908;SDS011;6522;49.622;6.126;2023-03-01T00:16:16;25.62;;;24.05;;
12908;SDS011;6522;49.622;6.126;2023-03-01T00:19:00;23.83;;;22.33;;
12908;SDS011;6522;49.622;6.126;2023-03-01T00:21:46;18.65;;;17.15;;
12908;SDS011;6522;49.622;6.126;2023-03-01T00:24:33;22.80;;;21.30;;
12908;SDS011;6522;49.622;6.126;2023-03-01T00:27:20;24.73;;;23.00;;
12908;SDS011;6522;49.622;6.126;2023-03-01T00:30:06;24.63;;;23.00;;
12908;SDS011;6522;49.622;6.126;2023-03-01T00:32:53;18.75;;;17.35;;
12908;SDS011;6522;49.622;6.126;2023-03-01T00:35:40;24.48;;;22.77;;
12908;SDS011;6522;49.622;6.126;2023-03-01T00:38:27;24.50;;;22.95;;
12908;SDS011;6522;49.622;6.126;2023-03-01T00:41:14;25.55;;;24.00;;
12908;SDS011;6522;49.622;6.126;2023-03-01T00:44:00;24.30;;;22.70;;
12908;SDS011;6522;49.622;6.126;2023-03-01T00:46:47;25.45;;;23.58;;
12908;SDS011;6522;49.622;6.126;2023-03-01T00:49:34;24.77;;;23.17;;
12908;SDS011;6522;49.622;6.126;2023-03-01T00:52:21;25.00;;;23.20;;
12908;SDS011;6522;49.622;6.126;2023-03-01T00:55:08;18.40;;;17.00;;
12908;SDS011;6522;49.622;6.126;2023-03-01T00:57:54;25.17;;;23.48;;
12908;SDS011;6522;49.622;6.126;2023-03-01T01:00:41;23.73;;;22.00;;
12908;SDS011;6522;49.622;6.126;2023-03-01T01:03:28;24.75;;;23.23;;
12908;SDS011;6522;49.622;6.126;2023-03-01T01:06:16;26.83;;;25.15;;
12908;SDS011;6522;49.622;6.126;2023-03-01T01:09:03;24.87;;;23.27;;
12908;SDS011;6522;49.622;6.126;2023-03-01T01:11:49;24.70;;;23.15;;
12908;SDS011;6522;49.622;6.126;2023-03-01T01:14:35;22.87;;;21.33;;
12908;SDS011;6522;49.622;6.126;2023-03-01T01:17:22;24.55;;;23.05;;
12908;SDS011;6522;49.622;6.126;2023-03-01T01:20:08;25.20;;;23.50;;
12908;SDS011;6522;49.622;6.126;2023-03-01T01:22:55;21.95;;;20.52;;
12908;SDS011;6522;49.622;6.126;2023-03-01T01:25:42;21.42;;;19.80;;
12908;SDS011;6522;49.622;6.126;2023-03-01T01:28:29;25.27;;;23.33;;
12908;SDS011;6522;49.622;6.126;2023-03-01T01:31:16;24.30;;;22.58;;
12908;SDS011;6522;49.622;6.126;2023-03-01T01:34:03;25.25;;;23.23;;
12908;SDS011;6522;49.622;6.126;2023-03-01T01:36:50;21.65;;;19.77;;
12908;SDS011;6522;49.622;6.126;2023-03-01T01:39:36;23.45;;;21.67;;
12908;SDS011;6522;49.622;6.126;2023-03-01T01:42:23;23.00;;;21.60;;
12908;SDS011;6522;49.622;6.126;2023-03-01T01:45:27;21.83;;;20.23;;
12908;SDS011;6522;49.622;6.126;2023-03-01T01:48:14;24.25;;;22.65;;
12908;SDS011;6522;49.622;6.126;2023-03-01T01:50:59;18.12;;;16.70;;
12908;SDS011;6522;49.622;6.126;2023-03-01T01:53:47;21.95;;;20.23;;
12908;SDS011;6522;49.622;6.126;2023-03-01T01:56:33;26.62;;;24.87;;
12908;SDS011;6522;49.622;6.126;2023-03-01T01:59:19;22.95;;;21.15;;
12908;SDS011;6522;49.622;6.126;2023-03-01T02:02:06;21.55;;;19.58;;
12908;SDS011;6522;49.622;6.126;2023-03-01T02:04:55;22.35;;;20.67;;
12908;SDS011;6522;49.622;6.126;2023-03-01T02:07:39;17.20;;;15.77;;
12908;SDS011;6522;49.622;6.126;2023-03-01T02:10:26;24.05;;;22.25;;
12908;SDS011;6522;49.622;6.126;2023-03-01T02:13:13;25.48;;;23.30;;
12908;SDS011;6522;49.622;6.126;2023-03-01T02:16:02;23.00;;;21.37;;
12908;SDS011;6522;49.622;6.126;2023-03-01T02:18:46;22.05;;;20.40;;
12908;SDS011;6522;49.622;6.126;2023-03-01T02:21:52;23.70;;;21.83;;
12908;SDS011;6522;49.622;6.126;2023-03-01T02:24:48;20.58;;;19.00;;
12908;SDS011;6522;49.622;6.126;2023-03-01T02:27:22;22.00;;;20.10;;
12908;SDS011;6522;49.622;6.126;2023-03-01T02:30:09;23.87;;;21.87;;
12908;SDS011;6522;49.622;6.126;2023-03-01T02:32:56;22.40;;;20.70;;
12908;SDS011;6522;49.622;6.126;2023-03-01T02:35:45;23.52;;;21.83;;
12908;SDS011;6522;49.622;6.126;2023-03-01T02:38:32;22.87;;;21.20;;
12908;SDS011;6522;49.622;6.126;2023-03-01T02:41:19;22.17;;;20.35;;
12908;SDS011;6522;49.622;6.126;2023-03-01T02:44:05;21.48;;;19.90;;
12908;SDS011;6522;49.622;6.126;2023-03-01T02:46:53;23.90;;;22.20;;
12908;SDS011;6522;49.622;6.126;2023-03-01T02:49:39;17.80;;;16.10;;
12908;SDS011;6522;49.622;6.126;2023-03-01T02:55:31;24.85;;;22.65;;
12908;SDS011;6522;49.622;6.126;2023-03-01T02:58:17;23.50;;;21.70;;
12908;SDS011;6522;49.622;6.126;2023-03-01T03:01:04;26.90;;;25.05;;
12908;SDS011;6522;49.622;6.126;2023-03-01T03:03:51;21.90;;;20.02;;
12908;SDS011;6522;49.622;6.126;2023-03-01T03:06:37;24.48;;;22.58;;
12908;SDS011;6522;49.622;6.126;2023-03-01T03:09:24;22.85;;;20.83;;
12908;SDS011;6522;49.622;6.126;2023-03-01T03:12:11;25.88;;;23.75;;
12908;SDS011;6522;49.622;6.126;2023-03-01T03:14:58;21.12;;;19.33;;
12908;SDS011;6522;49.622;6.126;2023-03-01T03:17:44;21.77;;;19.98;;
12908;SDS011;6522;49.622;6.126;2023-03-01T03:20:32;21.73;;;19.80;;
12908;SDS011;6522;49.622;6.126;2023-03-01T03:23:20;19.55;;;17.65;;
12908;SDS011;6522;49.622;6.126;2023-03-01T03:26:06;23.87;;;22.08;;
12908;SDS011;6522;49.622;6.126;2023-03-01T03:28:52;25.62;;;23.83;;
12908;SDS011;6522;49.622;6.126;2023-03-01T03:31:39;21.92;;;20.12;;
12908;SDS011;6522;49.622;6.126;2023-03-01T03:34:26;26.12;;;24.02;;
12908;SDS011;6522;49.622;6.126;2023-03-01T03:37:13;24.20;;;21.92;;
12908;SDS011;6522;49.622;6.126;2023-03-01T03:39:59;22.52;;;20.83;;
12908;SDS011;6522;49.622;6.126;2023-03-01T03:42:46;19.30;;;17.40;;
12908;SDS011;6522;49.622;6.126;2023-03-01T03:45:33;30.42;;;28.33;;
12908;SDS011;6522;49.622;6.126;2023-03-01T03:48:20;27.05;;;25.05;;
12908;SDS011;6522;49.622;6.126;2023-03-01T03:51:06;26.05;;;24.02;;
12908;SDS011;6522;49.622;6.126;2023-03-01T03:53:53;24.77;;;22.52;;
12908;SDS011;6522;49.622;6.126;2023-03-01T03:56:40;20.95;;;19.27;;
12908;SDS011;6522;49.622;6.126;2023-03-01T03:59:26;18.48;;;16.62;;
12908;SDS011;6522;49.622;6.126;2023-03-01T04:02:13;25.75;;;23.77;;
12908;SDS011;6522;49.622;6.126;2023-03-01T04:04:59;23.77;;;22.08;;
12908;SDS011;6522;49.622;6.126;2023-03-01T04:07:46;26.00;;;23.87;;
12908;SDS011;6522;49.622;6.126;2023-03-01T04:10:34;23.90;;;21.80;;
12908;SDS011;6522;49.622;6.126;2023-03-01T04:13:20;23.92;;;21.73;;
12908;SDS011;6522;49.622;6.126;2023-03-01T04:16:06;23.62;;;21.62;;
12908;SDS011;6522;49.622;6.126;2023-03-01T04:18:53;26.58;;;24.48;;
12908;SDS011;6522;49.622;6.126;2023-03-01T04:21:40;24.23;;;22.17;;
12908;SDS011;6522;49.622;6.126;2023-03-01T04:24:27;20.70;;;18.90;;
12908;SDS011;6522;49.622;6.126;2023-03-01T04:27:13;26.02;;;23.40;;
12908;SDS011;6522;49.622;6.126;2023-03-01T04:30:00;24.33;;;22.25;;
12908;SDS011;6522;49.622;6.126;2023-03-01T04:32:47;25.55;;;22.87;;
12908;SDS011;6522;49.622;6.126;2023-03-01T04:35:34;25.92;;;23.73;;
12908;SDS011;6522;49.622;6.126;2023-03-01T04:38:20;25.75;;;23.55;;
12908;SDS011;6522;49.622;6.126;2023-03-01T04:41:08;25.25;;;23.15;;
12908;SDS011;6522;49.622;6.126;2023-03-01T04:43:54;23.38;;;20.98;;
12908;SDS011;6522;49.622;6.126;2023-03-01T04:46:40;19.02;;;17.10;;
12908;SDS011;6522;49.622;6.126;2023-03-01T04:49:27;24.08;;;21.98;;
12908;SDS011;6522;49.622;6.126;2023-03-01T04:52:14;23.35;;;21.10;;
12908;SDS011;6522;49.622;6.126;2023-03-01T04:55:01;27.50;;;25.27;;
12908;SDS011;6522;49.622;6.126;2023-03-01T04:57:48;22.77;;;20.50;;
12908;SDS011;6522;49.622;6.126;2023-03-01T05:00:35;26.55;;;24.05;;
12908;SDS011;6522;49.622;6.126;2023-03-01T05:03:22;25.67;;;23.27;;
12908;SDS011;6522;49.622;6.126;2023-03-01T05:06:08;23.62;;;21.52;;
12908;SDS011;6522;49.622;6.126;2023-03-01T05:08:55;25.27;;;23.12;;
12908;SDS011;6522;49.622;6.126;2023-03-01T05:11:42;23.20;;;19.83;;
12908;SDS011;6522;49.622;6.126;2023-03-01T05:14:29;26.42;;;24.12;;
12908;SDS011;6522;49.622;6.126;2023-03-01T05:17:16;25.02;;;22.62;;
12908;SDS011;6522;49.622;6.126;2023-03-01T05:20:02;24.35;;;21.92;;
12908;SDS011;6522;49.622;6.126;2023-03-01T05:22:50;25.02;;;22.62;;
12908;SDS011;6522;49.622;6.126;2023-03-01T05:25:36;21.30;;;19.17;;
12908;SDS011;6522;49.622;6.126;2023-03-01T05:28:23;25.88;;;23.45;;
12908;SDS011;6522;49.622;6.126;2023-03-01T05:31:10;25.58;;;23.35;;
12908;SDS011;6522;49.622;6.126;2023-03-01T05:33:57;23.42;;;21.33;;
12908;SDS011;6522;49.622;6.126;2023-03-01T05:36:44;20.30;;;17.58;;
12908;SDS011;6522;49.622;6.126;2023-03-01T05:39:30;24.75;;;22.55;;
12908;SDS011;6522;49.622;6.126;2023-03-01T05:42:17;24.75;;;22.35;;
12908;SDS011;6522;49.622;6.126;2023-03-01T05:45:04;26.08;;;23.55;;
12908;SDS011;6522;49.622;6.126;2023-03-01T05:47:51;23.10;;;18.90;;
12908;SDS011;6522;49.622;6.126;2023-03-01T05:50:39;26.65;;;24.35;;
12908;SDS011;6522;49.622;6.126;2023-03-01T05:53:25;24.87;;;22.67;;
12908;SDS011;6522;49.622;6.126;2023-03-01T05:56:11;26.02;;;23.60;;
12908;SDS011;6522;49.622;6.126;2023-03-01T05:58:58;23.62;;;21.60;;
12908;SDS011;6522;49.622;6.126;2023-03-01T06:01:45;27.20;;;24.73;;
12908;SDS011;6522;49.622;6.126;2023-03-01T06:04:32;24.58;;;22.40;;
12908;SDS011;6522;49.622;6.126;2023-03-01T06:07:18;25.50;;;23.50;;
12908;SDS011;6522;49.622;6.126;2023-03-01T06:10:05;25.02;;;22.73;;
12908;SDS011;6522;49.622;6.126;2023-03-01T06:12:52;29.10;;;26.40;;
12908;SDS011;6522;49.622;6.126;2023-03-01T06:15:39;24.30;;;21.92;;
12908;SDS011;6522;49.622;6.126;2023-03-01T06:18:25;22.60;;;20.50;;
12908;SDS011;6522;49.622;6.126;2023-03-01T06:21:12;25.55;;;23.30;;
12908;SDS011;6522;49.622;6.126;2023-03-01T06:23:59;25.00;;;22.62;;
12908;SDS011;6522;49.622;6.126;2023-03-01T06:26:46;29.27;;;26.23;;
12908;SDS011;6522;49.622;6.126;2023-03-01T06:29:33;25.08;;;22.92;;
12908;SDS011;6522;49.622;6.126;2023-03-01T06:32:19;25.70;;;23.25;;
12908;SDS011;6522;49.622;6.126;2023-03-01T06:35:06;26.65;;;23.92;;
12908;SDS011;6522;49.622;6.126;2023-03-01T06:37:53;27.48;;;24.80;;
12908;SDS011;6522;49.622;6.126;2023-03-01T06:40:39;27.95;;;24.95;;
12908;SDS011;6522;49.622;6.126;2023-03-01T06:43:26;26.05;;;24.05;;
12908;SDS011;6522;49.622;6.126;2023-03-01T06:46:13;29.00;;;24.70;;
12908;SDS011;6522;49.622;6.126;2023-03-01T06:49:00;23.63;;;21.33;;
12908;SDS011;6522;49.622;6.126;2023-03-01T06:51:47;29.95;;;27.05;;
12908;SDS011;6522;49.622;6.126;2023-03-01T06:54:33;25.15;;;22.77;;
12908;SDS011;6522;49.622;6.126;2023-03-01T06:57:20;30.30;;;27.33;;
12908;SDS011;6522;49.622;6.126;2023-03-01T07:00:06;26.67;;;24.55;;
12908;SDS011;6522;49.622;6.126;2023-03-01T07:02:53;28.62;;;25.90;;
12908;SDS011;6522;49.622;6.126;2023-03-01T07:05:40;21.80;;;19.50;;
12908;SDS011;6522;49.622;6.126;2023-03-01T07:08:27;31.20;;;28.42;;
12908;SDS011;6522;49.622;6.126;2023-03-01T07:11:14;27.95;;;25.50;;
12908;SDS011;6522;49.622;6.126;2023-03-01T07:14:01;28.65;;;26.33;;
12908;SDS011;6522;49.622;6.126;2023-03-01T07:16:48;28.95;;;26.60;;
12908;SDS011;6522;49.622;6.126;2023-03-01T07:19:34;28.67;;;26.02;;
12908;SDS011;6522;49.622;6.126;2023-03-01T07:22:21;28.15;;;25.40;;
12908;SDS011;6522;49.622;6.126;2023-03-01T07:25:08;30.10;;;27.58;;
12908;SDS011;6522;49.622;6.126;2023-03-01T07:27:55;23.45;;;20.58;;
12908;SDS011;6522;49.622;6.126;2023-03-01T07:30:42;30.27;;;27.62;;
12908;SDS011;6522;49.622;6.126;2023-03-01T07:33:28;29.12;;;26.62;;
12908;SDS011;6522;49.622;6.126;2023-03-01T07:36:15;28.70;;;26.30;;
12908;SDS011;6522;49.622;6.126;2023-03-01T07:39:02;29.15;;;26.58;;
12908;SDS011;6522;49.622;6.126;2023-03-01T07:41:49;28.80;;;26.40;;
12908;SDS011;6522;49.622;6.126;2023-03-01T07:44:35;28.08;;;25.10;;
12908;SDS011;6522;49.622;6.126;2023-03-01T07:47:22;31.30;;;28.60;;
12908;SDS011;6522;49.622;6.126;2023-03-01T07:50:09;30.45;;;27.98;;
12908;SDS011;6522;49.622;6.126;2023-03-01T07:52:56;30.60;;;27.80;;
12908;SDS011;6522;49.622;6.126;2023-03-01T07:55:43;32.60;;;29.48;;
12908;SDS011;6522;49.622;6.126;2023-03-01T07:58:30;31.02;;;28.48;;
12908;SDS011;6522;49.622;6.126;2023-03-01T08:01:18;34.28;;;31.62;;
12908;SDS011;6522;49.622;6.126;2023-03-01T08:04:03;35.00;;;32.40;;
12908;SDS011;6522;49.622;6.126;2023-03-01T08:06:50;24.23;;;21.70;;
12908;SDS011;6522;49.622;6.126;2023-03-01T08:09:37;27.13;;;24.55;;
12908;SDS011;6522;49.622;6.126;2023-03-01T08:12:24;35.10;;;31.70;;
12908;SDS011;6522;49.622;6.126;2023-03-01T08:15:11;30.35;;;27.85;;
12908;SDS011;6522;49.622;6.126;2023-03-01T08:17:57;29.70;;;27.10;;
12908;SDS011;6522;49.622;6.126;2023-03-01T08:20:44;32.85;;;30.12;;
12908;SDS011;6522;49.622;6.126;2023-03-01T08:23:30;32.80;;;30.17;;
12908;SDS011;6522;49.622;6.126;2023-03-01T08:26:18;31.73;;;29.33;;
12908;SDS011;6522;49.622;6.126;2023-03-01T08:29:05;34.15;;;31.27;;
12908;SDS011;6522;49.622;6.126;2023-03-01T08:31:51;35.65;;;32.65;;
12908;SDS011;6522;49.622;6.126;2023-03-01T08:34:38;35.47;;;32.63;;
12908;SDS011;6522;49.622;6.126;2023-03-01T08:37:25;26.60;;;24.40;;
12908;SDS011;6522;49.622;6.126;2023-03-01T08:40:11;28.95;;;26.45;;
12908;SDS011;6522;49.622;6.126;2023-03-01T08:42:58;31.60;;;28.90;;
12908;SDS011;6522;49.622;6.126;2023-03-01T08:45:47;27.53;;;24.97;;
12908;SDS011;6522;49.622;6.126;2023-03-01T08:48:33;27.92;;;25.33;;
12908;SDS011;6522;49.622;6.126;2023-03-01T08:51:21;30.60;;;27.95;;
12908;SDS011;6522;49.622;6.126;2023-03-01T08:54:09;31.23;;;28.33;;
12908;SDS011;6522;49.622;6.126;2023-03-01T08:56:53;33.10;;;30.42;;
12908;SDS011;6522;49.622;6.126;2023-03-01T08:59:40;31.48;;;28.90;;
12908;SDS011;6522;49.622;6.126;2023-03-01T09:02:27;32.67;;;30.08;;
12908;SDS011;6522;49.622;6.126;2023-03-01T09:05:14;33.55;;;30.75;;
12908;SDS011;6522;49.622;6.126;2023-03-01T09:08:01;32.88;;;30.25;;
12908;SDS011;6522;49.622;6.126;2023-03-01T09:10:47;36.00;;;32.95;;
12908;SDS011;6522;49.622;6.126;2023-03-01T09:13:34;36.97;;;33.97;;
12908;SDS011;6522;49.622;6.126;2023-03-01T09:16:21;32.55;;;29.85;;
12908;SDS011;6522;49.622;6.126;2023-03-01T09:19:07;29.08;;;26.48;;
12908;SDS011;6522;49.622;6.126;2023-03-01T09:21:54;30.77;;;28.27;;
12908;SDS011;6522;49.622;6.126;2023-03-01T09:24:41;33.03;;;30.42;;
12908;SDS011;6522;49.622;6.126;2023-03-01T09:27:28;34.85;;;31.95;;
12908;SDS011;6522;49.622;6.126;2023-03-01T09:30:15;33.70;;;31.27;;
12908;SDS011;6522;49.622;6.126;2023-03-01T09:33:02;30.30;;;27.80;;
12908;SDS011;6522;49.622;6.126;2023-03-01T09:35:48;33.22;;;30.42;;
12908;SDS011;6522;49.622;6.126;2023-03-01T09:38:35;31.62;;;29.05;;
12908;SDS011;6522;49.622;6.126;2023-03-01T09:41:26;31.08;;;28.73;;
12908;SDS011;6522;49.622;6.126;2023-03-01T09:46:59;32.15;;;29.77;;
12908;SDS011;6522;49.622;6.126;2023-03-01T09:49:57;31.15;;;28.55;;
12908;SDS011;6522;49.622;6.126;2023-03-01T09:52:42;33.45;;;30.85;;
12908;SDS011;6522;49.622;6.126;2023-03-01T09:55:33;32.75;;;30.25;;
12908;SDS011;6522;49.622;6.126;2023-03-01T10:01:25;32.00;;;29.75;;
12908;SDS011;6522;49.622;6.126;2023-03-01T10:07:05;33.58;;;31.02;;
12908;SDS011;6522;49.622;6.126;2023-03-01T10:09:49;32.47;;;29.87;;
12908;SDS011;6522;49.622;6.126;2023-03-01T10:12:37;32.42;;;29.98;;
12908;SDS011;6522;49.622;6.126;2023-03-01T10:15:31;34.08;;;31.60;;
12908;SDS011;6522;49.622;6.126;2023-03-01T10:18:11;35.22;;;32.63;;
12908;SDS011;6522;49.622;6.126;2023-03-01T10:21:00;34.47;;;31.73;;
12908;SDS011;6522;49.622;6.126;2023-03-01T10:23:43;33.15;;;30.77;;
12908;SDS011;6522;49.622;6.126;2023-03-01T10:29:17;29.40;;;27.00;;
12908;SDS011;6522;49.622;6.126;2023-03-01T10:32:03;34.25;;;31.45;;
12908;SDS011;6522;49.622;6.126;2023-03-01T10:34:50;34.70;;;32.05;;
12908;SDS011;6522;49.622;6.126;2023-03-01T10:37:37;36.45;;;33.65;;
12908;SDS011;6522;49.622;6.126;2023-03-01T10:40:24;33.30;;;31.00;;
12908;SDS011;6522;49.622;6.126;2023-03-01T10:43:11;34.38;;;31.83;;
12908;SDS011;6522;49.622;6.126;2023-03-01T10:45:58;34.40;;;31.75;;
12908;SDS011;6522;49.622;6.126;2023-03-01T10:48:45;34.63;;;31.92;;
12908;SDS011;6522;49.622;6.126;2023-03-01T10:51:32;35.00;;;32.25;;
12908;SDS011;6522;49.622;6.126;2023-03-01T10:57:05;35.28;;;32.67;;
12908;SDS011;6522;49.622;6.126;2023-03-01T11:00:00;35.45;;;32.67;;
12908;SDS011;6522;49.622;6.126;2023-03-01T11:02:38;33.53;;;30.83;;
12908;SDS011;6522;49.622;6.126;2023-03-01T11:05:25;33.67;;;31.17;;
12908;SDS011;6522;49.622;6.126;2023-03-01T11:08:11;31.10;;;28.60;;
12908;SDS011;6522;49.622;6.126;2023-03-01T11:11:06;34.22;;;31.60;;
12908;SDS011;6522;49.622;6.126;2023-03-01T11:16:48;34.38;;;31.73;;
12908;SDS011;6522;49.622;6.126;2023-03-01T11:19:34;35.10;;;32.30;;
12908;SDS011;6522;49.622;6.126;2023-03-01T11:22:21;32.45;;;29.75;;
12908;SDS011;6522;49.622;6.126;2023-03-01T11:25:08;34.47;;;31.77;;
12908;SDS011;6522;49.622;6.126;2023-03-01T11:27:54;32.87;;;30.37;;
12908;SDS011;6522;49.622;6.126;2023-03-01T11:30:53;34.57;;;32.07;;
12908;SDS011;6522;49.622;6.126;2023-03-01T11:33:44;32.90;;;30.30;;
12908;SDS011;6522;49.622;6.126;2023-03-01T11:39:20;34.80;;;32.30;;
12908;SDS011;6522;49.622;6.126;2023-03-01T11:42:11;32.97;;;30.50;;
12908;SDS011;6522;49.622;6.126;2023-03-01T11:44:54;32.58;;;30.08;;
12908;SDS011;6522;49.622;6.126;2023-03-01T11:50:46;41.58;;;38.72;;
12908;SDS011;6522;49.622;6.126;2023-03-01T11:53:54;40.35;;;37.15;;
12908;SDS011;6522;49.622;6.126;2023-03-01T11:56:38;39.92;;;37.13;;
12908;SDS011;6522;49.622;6.126;2023-03-01T11:59:34;36.35;;;33.75;;
12908;SDS011;6522;49.622;6.126;2023-03-01T12:08:14;33.17;;;30.47;;
12908;SDS011;6522;49.622;6.126;2023-03-01T12:11:03;32.28;;;29.98;;
12908;SDS011;6522;49.622;6.126;2023-03-01T12:17:06;32.47;;;30.03;;
12908;SDS011;6522;49.622;6.126;2023-03-01T12:19:53;33.28;;;30.83;;
12908;SDS011;6522;49.622;6.126;2023-03-01T12:22:45;32.63;;;30.10;;
12908;SDS011;6522;49.622;6.126;2023-03-01T12:31:44;34.40;;;31.50;;
12908;SDS011;6522;49.622;6.126;2023-03-01T12:37:32;32.85;;;30.35;;
12908;SDS011;6522;49.622;6.126;2023-03-01T12:40:33;35.03;;;32.37;;
12908;SDS011;6522;49.622;6.126;2023-03-01T12:52:23;35.63;;;32.80;;
12908;SDS011;6522;49.622;6.126;2023-03-01T12:55:18;32.63;;;30.02;;
12908;SDS011;6522;49.622;6.126;2023-03-01T13:06:33;33.88;;;31.37;;
12908;SDS011;6522;49.622;6.126;2023-03-01T13:09:19;35.72;;;32.97;;
12908;SDS011;6522;49.622;6.126;2023-03-01T13:12:52;33.60;;;31.27;;
12908;SDS011;6522;49.622;6.126;2023-03-01T13:14:53;35.03;;;32.22;;
12908;SDS011;6522;49.622;6.126;2023-03-01T13:17:42;32.67;;;30.23;;
12908;SDS011;6522;49.622;6.126;2023-03-01T13:20:33;36.63;;;33.75;;
12908;SDS011;6522;49.622;6.126;2023-03-01T13:23:26;34.35;;;31.87;;
12908;SDS011;6522;49.622;6.126;2023-03-01T13:26:11;33.53;;;31.15;;
12908;SDS011;6522;49.622;6.126;2023-03-01T13:28:56;34.80;;;31.83;;
12908;SDS011;6522;49.622;6.126;2023-03-01T13:34:41;32.58;;;30.05;;
12908;SDS011;6522;49.622;6.126;2023-03-01T13:37:29;34.22;;;31.33;;
12908;SDS011;6522;49.622;6.126;2023-03-01T13:46:21;34.13;;;31.73;;
12908;SDS011;6522;49.622;6.126;2023-03-01T13:49:18;36.10;;;33.08;;
12908;SDS011;6522;49.622;6.126;2023-03-01T13:51:54;33.53;;;31.08;;
12908;SDS011;6522;49.622;6.126;2023-03-01T13:54:42;35.17;;;32.70;;
12908;SDS011;6522;49.622;6.126;2023-03-01T13:57:30;33.42;;;31.23;;
12908;SDS011;6522;49.622;6.126;2023-03-01T14:00:29;35.78;;;33.05;;
12908;SDS011;6522;49.622;6.126;2023-03-01T14:03:18;35.25;;;32.70;;
12908;SDS011;6522;49.622;6.126;2023-03-01T14:06:08;32.83;;;30.12;;
12908;SDS011;6522;49.622;6.126;2023-03-01T14:09:05;34.45;;;32.15;;
12908;SDS011;6522;49.622;6.126;2023-03-01T14:14:54;34.00;;;31.23;;
12908;SDS011;6522;49.622;6.126;2023-03-01T14:20:36;32.67;;;29.98;;
12908;SDS011;6522;49.622;6.126;2023-03-01T14:23:20;33.30;;;30.85;;
12908;SDS011;6522;49.622;6.126;2023-03-01T14:26:03;33.75;;;31.45;;
12908;SDS011;6522;49.622;6.126;2023-03-01T14:28:50;35.53;;;32.38;;
12908;SDS011;6522;49.622;6.126;2023-03-01T14:31:37;32.95;;;30.40;;
12908;SDS011;6522;49.622;6.126;2023-03-01T14:34:23;33.47;;;31.17;;
12908;SDS011;6522;49.622;6.126;2023-03-01T14:37:33;35.45;;;32.92;;
12908;SDS011;6522;49.622;6.126;2023-03-01T14:39:57;34.03;;;31.37;;
12908;SDS011;6522;49.622;6.126;2023-03-01T14:42:43;33.50;;;31.20;;
12908;SDS011;6522;49.622;6.126;2023-03-01T14:45:30;35.38;;;32.80;;
12908;SDS011;6522;49.622;6.126;2023-03-01T14:48:17;34.47;;;31.95;;
12908;SDS011;6522;49.622;6.126;2023-03-01T14:51:04;35.35;;;32.67;;
12908;SDS011;6522;49.622;6.126;2023-03-01T14:53:50;33.28;;;30.70;;
12908;SDS011;6522;49.622;6.126;2023-03-01T14:56:43;30.45;;;28.35;;
12908;SDS011;6522;49.622;6.126;2023-03-01T14:59:29;34.20;;;31.30;;
12908;SDS011;6522;49.622;6.126;2023-03-01T15:02:17;33.03;;;30.27;;
12908;SDS011;6522;49.622;6.126;2023-03-01T15:05:03;32.67;;;29.80;;
12908;SDS011;6522;49.622;6.126;2023-03-01T15:07:53;32.40;;;30.05;;
12908;SDS011;6522;49.622;6.126;2023-03-01T15:10:39;29.40;;;27.00;;
12908;SDS011;6522;49.622;6.126;2023-03-01T15:13:29;31.62;;;29.40;;
12908;SDS011;6522;49.622;6.126;2023-03-01T15:16:20;32.58;;;30.17;;
12908;SDS011;6522;49.622;6.126;2023-03-01T15:19:06;31.30;;;29.00;;
12908;SDS011;6522;49.622;6.126;2023-03-01T15:21:53;28.48;;;25.98;;
12908;SDS011;6522;49.622;6.126;2023-03-01T15:24:39;32.33;;;30.00;;
12908;SDS011;6522;49.622;6.126;2023-03-01T15:27:26;31.77;;;29.45;;
12908;SDS011;6522;49.622;6.126;2023-03-01T15:30:14;30.80;;;28.62;;
12908;SDS011;6522;49.622;6.126;2023-03-01T15:33:19;32.08;;;29.55;;
12908;SDS011;6522;49.622;6.126;2023-03-01T15:39:26;31.58;;;29.05;;
12908;SDS011;6522;49.622;6.126;2023-03-01T15:42:13;31.83;;;29.35;;
12908;SDS011;6522;49.622;6.126;2023-03-01T15:45:09;31.95;;;29.60;;
12908;SDS011;6522;49.622;6.126;2023-03-01T15:47:58;31.90;;;29.37;;
12908;SDS011;6522;49.622;6.126;2023-03-01T15:50:44;30.90;;;28.70;;
12908;SDS011;6522;49.622;6.126;2023-03-01T15:53:31;30.90;;;28.70;;
12908;SDS011;6522;49.622;6.126;2023-03-01T15:56:18;31.20;;;28.90;;
12908;SDS011;6522;49.622;6.126;2023-03-01T15:59:05;32.70;;;30.30;;
12908;SDS011;6522;49.622;6.126;2023-03-01T16:01:51;32.50;;;30.05;;
12908;SDS011;6522;49.622;6.126;2023-03-01T16:04:38;33.25;;;30.60;;
12908;SDS011;6522;49.622;6.126;2023-03-01T16:07:25;30.02;;;27.92;;
12908;SDS011;6522;49.622;6.126;2023-03-01T16:10:11;31.83;;;29.50;;
12908;SDS011;6522;49.622;6.126;2023-03-01T16:12:58;30.48;;;28.10;;
12908;SDS011;6522;49.622;6.126;2023-03-01T16:15:44;32.72;;;30.27;;
12908;SDS011;6522;49.622;6.126;2023-03-01T16:18:31;32.92;;;30.58;;
12908;SDS011;6522;49.622;6.126;2023-03-01T16:21:22;30.67;;;28.60;;
12908;SDS011;6522;49.622;6.126;2023-03-01T16:24:08;30.60;;;28.33;;
12908;SDS011;6522;49.622;6.126;2023-03-01T16:26:55;32.13;;;29.52;;
12908;SDS011;6522;49.622;6.126;2023-03-01T16:29:41;31.35;;;28.80;;
12908;SDS011;6522;49.622;6.126;2023-03-01T16:32:28;29.15;;;26.80;;
12908;SDS011;6522;49.622;6.126;2023-03-01T16:35:16;30.58;;;28.25;;
12908;SDS011;6522;49.622;6.126;2023-03-01T16:38:01;28.60;;;26.30;;
12908;SDS011;6522;49.622;6.126;2023-03-01T16:40:49;30.08;;;27.73;;
12908;SDS011;6522;49.622;6.126;2023-03-01T16:43:34;30.92;;;28.40;;
12908;SDS011;6522;49.622;6.126;2023-03-01T16:46:22;28.75;;;26.35;;
12908;SDS011;6522;49.622;6.126;2023-03-01T16:49:08;30.25;;;27.95;;
12908;SDS011;6522;49.622;6.126;2023-03-01T16:51:55;31.00;;;28.55;;
12908;SDS011;6522;49.622;6.126;2023-03-01T16:54:42;31.15;;;28.70;;
12908;SDS011;6522;49.622;6.126;2023-03-01T16:57:29;30.48;;;28.38;;
12908;SDS011;6522;49.622;6.126;2023-03-01T17:00:15;27.37;;;25.37;;
12908;SDS011;6522;49.622;6.126;2023-03-01T17:03:02;29.60;;;27.25;;
12908;SDS011;6522;49.622;6.126;2023-03-01T17:05:49;28.27;;;26.23;;
12908;SDS011;6522;49.622;6.126;2023-03-01T17:08:36;30.45;;;28.25;;
12908;SDS011;6522;49.622;6.126;2023-03-01T17:11:22;29.05;;;27.17;;
12908;SDS011;6522;49.622;6.126;2023-03-01T17:14:09;31.00;;;28.60;;
12908;SDS011;6522;49.622;6.126;2023-03-01T17:16:55;29.15;;;27.05;;
12908;SDS011;6522;49.622;6.126;2023-03-01T17:19:43;28.85;;;26.70;;
12908;SDS011;6522;49.622;6.126;2023-03-01T17:22:29;29.77;;;27.52;;
12908;SDS011;6522;49.622;6.126;2023-03-01T17:25:16;28.65;;;26.58;;
12908;SDS011;6522;49.622;6.126;2023-03-01T17:28:03;28.48;;;26.52;;
12908;SDS011;6522;49.622;6.126;2023-03-01T17:30:49;30.00;;;27.85;;
12908;SDS011;6522;49.622;6.126;2023-03-01T17:33:37;25.48;;;23.58;;
12908;SDS011;6522;49.622;6.126;2023-03-01T17:36:23;28.38;;;26.48;;
12908;SDS011;6522;49.622;6.126;2023-03-01T17:39:10;29.67;;;27.80;;
12908;SDS011;6522;49.622;6.126;2023-03-01T17:41:56;29.20;;;27.20;;
12908;SDS011;6522;49.622;6.126;2023-03-01T17:44:43;28.55;;;26.62;;
12908;SDS011;6522;49.622;6.126;2023-03-01T17:47:30;28.15;;;26.35;;
12908;SDS011;6522;49.622;6.126;2023-03-01T17:50:17;30.02;;;27.80;;
12908;SDS011;6522;49.622;6.126;2023-03-01T17:53:04;28.35;;;26.35;;